createdAt,value
2023-02-02T00:01:21.316Z,2.63
2023-02-02T00:03:50.857Z,2.53
2023-02-02T00:06:19.044Z,3.10
2023-02-02T00:08:46.955Z,3.63
2023-02-02T00:11:14.915Z,2.43
2023-02-02T00:13:44.433Z,3.10
2023-02-02T00:16:31.165Z,3.03
2023-02-02T00:18:59.824Z,2.70
2023-02-02T00:21:27.866Z,2.93
2023-02-02T00:23:56.126Z,2.50
2023-02-02T00:26:24.150Z,3.07
2023-02-02T00:28:53.902Z,3.10
2023-02-02T00:31:21.812Z,2.50
2023-02-02T00:33:50.216Z,3.07
2023-02-02T00:36:18.368Z,3.20
2023-02-02T00:38:47.259Z,2.83
2023-02-02T00:41:15.260Z,2.57
2023-02-02T00:43:43.367Z,2.80
2023-02-02T00:46:14.060Z,2.70
2023-02-02T00:48:41.989Z,2.80
2023-02-02T00:51:09.901Z,2.70
2023-02-02T00:53:37.787Z,3.67
2023-02-02T00:56:05.970Z,2.83
2023-02-02T00:58:34.221Z,2.80
2023-02-02T01:01:02.660Z,3.10
2023-02-02T01:03:32.157Z,2.97
2023-02-02T01:06:00.108Z,2.40
2023-02-02T01:08:27.990Z,2.70
2023-02-02T01:10:55.854Z,2.73
2023-02-02T01:13:23.776Z,2.93
2023-02-02T01:15:56.250Z,3.00
2023-02-02T01:18:24.810Z,2.60
2023-02-02T01:20:59.412Z,2.50
2023-02-02T01:23:27.297Z,2.77
2023-02-02T01:25:55.863Z,2.97
2023-02-02T01:28:24.079Z,3.67
2023-02-02T01:30:52.333Z,2.87
2023-02-02T01:33:21.832Z,2.80
2023-02-02T01:35:50.967Z,3.10
2023-02-02T01:38:20.942Z,2.80
2023-02-02T01:40:49.837Z,3.00
2023-02-02T01:43:23.492Z,3.77
2023-02-02T01:45:51.778Z,3.80
2023-02-02T01:48:20.754Z,3.63
2023-02-02T01:50:49.306Z,3.50
2023-02-02T01:53:19.936Z,3.50
2023-02-02T01:55:49.984Z,3.20
2023-02-02T01:58:19.389Z,3.97
2023-02-02T02:00:47.351Z,3.83
2023-02-02T02:03:16.564Z,4.03
2023-02-02T02:05:46.049Z,4.03
2023-02-02T02:08:16.156Z,3.17
2023-02-02T02:10:44.031Z,4.27
2023-02-02T02:13:13.473Z,4.43
2023-02-02T02:16:02.447Z,3.80
2023-02-02T02:18:34.819Z,4.97
2023-02-02T02:21:28.871Z,4.40
2023-02-02T02:24:31.555Z,4.07
2023-02-02T02:27:17.266Z,3.10
2023-02-02T02:29:53.431Z,4.20
2023-02-02T02:32:28.590Z,4.27
2023-02-02T02:34:59.126Z,3.83
2023-02-02T02:37:31.748Z,3.70
2023-02-02T02:40:03.907Z,3.87
2023-02-02T02:42:33.661Z,4.07
2023-02-02T02:45:03.312Z,4.43
2023-02-02T02:47:33.643Z,3.60
2023-02-02T02:50:01.606Z,3.93
2023-02-02T02:52:29.663Z,4.13
2023-02-02T02:54:58.211Z,4.10
2023-02-02T02:57:33.403Z,3.73
2023-02-02T03:00:06.220Z,3.27
2023-02-02T03:02:41.037Z,3.70
2023-02-02T03:05:12.444Z,3.60
2023-02-02T03:07:43.570Z,4.07
2023-02-02T03:10:12.902Z,4.10
2023-02-02T03:12:45.310Z,4.37
2023-02-02T03:15:13.859Z,4.73
2023-02-02T03:17:43.923Z,4.43
2023-02-02T03:20:12.448Z,4.37
2023-02-02T03:22:40.352Z,4.30
2023-02-02T03:25:11.413Z,4.83
2023-02-02T03:27:39.436Z,5.13
2023-02-02T03:30:08.215Z,4.60
2023-02-02T03:32:36.191Z,4.50
2023-02-02T03:35:05.842Z,5.03
2023-02-02T03:37:33.793Z,4.33
2023-02-02T03:40:01.731Z,4.60
2023-02-02T03:42:29.683Z,4.60
2023-02-02T03:44:57.615Z,6.07
2023-02-02T03:47:25.471Z,5.07
2023-02-02T03:49:53.426Z,4.60
2023-02-02T03:52:22.796Z,4.70
2023-02-02T03:54:50.805Z,5.00
2023-02-02T03:57:19.060Z,4.30
2023-02-02T03:59:47.053Z,4.37
2023-02-02T04:02:14.942Z,4.97
2023-02-02T04:04:42.910Z,4.47
2023-02-02T04:07:11.716Z,4.53
2023-02-02T04:09:41.016Z,5.60
2023-02-02T04:12:08.992Z,4.90
2023-02-02T04:14:36.952Z,4.83
2023-02-02T04:17:04.915Z,4.00
2023-02-02T04:19:32.796Z,4.33
2023-02-02T04:22:00.715Z,4.73
2023-02-02T04:24:28.771Z,4.53
2023-02-02T04:26:58.067Z,6.03
2023-02-02T04:29:26.486Z,6.77
2023-02-02T04:31:54.489Z,5.03
2023-02-02T04:34:22.536Z,4.60
2023-02-02T04:36:50.496Z,4.37
2023-02-02T04:39:18.377Z,5.00
2023-02-02T04:41:52.644Z,5.10
2023-02-02T04:44:21.982Z,5.60
2023-02-02T04:46:50.003Z,4.50
2023-02-02T04:49:17.953Z,5.03
2023-02-02T04:51:45.911Z,4.10
2023-02-02T04:54:13.858Z,4.87
2023-02-02T04:56:41.773Z,4.30
2023-02-02T04:59:10.166Z,5.20
2023-02-02T05:01:39.655Z,4.93
2023-02-02T05:04:07.624Z,4.70
2023-02-02T05:06:36.096Z,4.40
2023-02-02T05:09:04.376Z,4.60
2023-02-02T05:11:32.680Z,4.30
2023-02-02T05:14:03.683Z,4.47
2023-02-02T05:16:32.058Z,3.87
2023-02-02T05:19:01.684Z,3.57
2023-02-02T05:21:30.046Z,4.20
2023-02-02T05:23:59.600Z,4.40
2023-02-02T05:26:28.255Z,3.33
2023-02-02T05:28:57.380Z,3.87
2023-02-02T05:31:25.366Z,3.70
2023-02-02T05:33:53.403Z,3.73
2023-02-02T05:36:22.871Z,3.77
2023-02-02T05:38:50.789Z,4.03
2023-02-02T05:41:18.765Z,3.83
2023-02-02T05:43:46.679Z,3.63
2023-02-02T05:46:14.710Z,3.33
2023-02-02T05:48:42.720Z,3.27
2023-02-02T05:51:13.518Z,3.47
2023-02-02T05:53:45.169Z,3.17
2023-02-02T05:56:13.336Z,3.47
2023-02-02T05:58:41.270Z,3.53
2023-02-02T06:01:10.084Z,2.77
2023-02-02T06:03:38.163Z,4.57
2023-02-02T06:06:07.111Z,4.30
2023-02-02T06:08:35.295Z,3.97
2023-02-02T06:11:11.056Z,3.33
2023-02-02T06:13:38.986Z,4.50
2023-02-02T06:16:09.984Z,3.77
2023-02-02T06:18:38.332Z,3.67
2023-02-02T06:21:07.204Z,3.63
2023-02-02T06:23:35.428Z,4.03
2023-02-02T06:26:04.618Z,3.67
2023-02-02T06:28:33.991Z,3.70
2023-02-02T06:31:05.119Z,3.67
2023-02-02T06:33:33.262Z,3.50
2023-02-02T06:36:02.332Z,3.97
2023-02-02T06:38:30.264Z,3.53
2023-02-02T06:41:00.242Z,3.23
2023-02-02T06:43:28.274Z,3.03
2023-02-02T06:45:58.488Z,2.90
2023-02-02T06:48:26.918Z,3.10
2023-02-02T06:50:55.445Z,3.27
2023-02-02T06:53:23.550Z,3.87
2023-02-02T06:55:54.950Z,3.23
2023-02-02T06:58:22.835Z,3.37
2023-02-02T07:00:50.715Z,3.13
2023-02-02T07:03:21.524Z,3.00
2023-02-02T07:05:49.569Z,3.03
2023-02-02T07:08:20.049Z,3.13
2023-02-02T07:11:13.380Z,3.00
2023-02-02T07:13:38.952Z,3.30
2023-02-02T07:16:08.258Z,2.87
2023-02-02T07:18:38.298Z,3.43
2023-02-02T07:21:06.645Z,3.37
2023-02-02T07:23:35.356Z,3.10
2023-02-02T07:26:04.731Z,3.43
2023-02-02T07:28:32.820Z,4.20
2023-02-02T07:31:00.952Z,3.80
2023-02-02T07:33:29.163Z,3.83
2023-02-02T07:35:58.485Z,4.07
2023-02-02T07:38:26.462Z,4.33
2023-02-02T07:40:54.467Z,2.97
2023-02-02T07:43:22.395Z,3.30
2023-02-02T07:45:50.413Z,3.90
2023-02-02T07:48:18.389Z,3.97
2023-02-02T07:50:46.680Z,4.40
2023-02-02T07:53:16.696Z,3.90
2023-02-02T07:55:46.942Z,5.13
2023-02-02T07:58:15.184Z,3.57
2023-02-02T08:00:43.181Z,4.23
2023-02-02T08:03:12.310Z,3.67
2023-02-02T08:05:40.336Z,3.23
2023-02-02T08:08:08.432Z,3.37
2023-02-02T08:10:37.935Z,3.30
2023-02-02T08:13:06.009Z,3.87
2023-02-02T08:15:34.176Z,5.63
2023-02-02T08:18:02.172Z,4.27
2023-02-02T08:20:30.243Z,3.57
2023-02-02T08:22:58.444Z,4.60
2023-02-02T08:25:26.847Z,4.03
2023-02-02T08:27:58.827Z,3.57
2023-02-02T08:30:27.027Z,4.03
2023-02-02T08:32:54.981Z,3.43
2023-02-02T08:35:23.053Z,3.37
2023-02-02T08:37:51.305Z,4.80
2023-02-02T08:40:19.623Z,4.00
2023-02-02T08:42:51.233Z,3.60
2023-02-02T08:46:02.150Z,3.80
2023-02-02T08:48:12.077Z,3.30
2023-02-02T08:50:41.387Z,3.07
2023-02-02T08:53:09.313Z,4.20
2023-02-02T08:55:37.239Z,3.83
2023-02-02T08:58:05.642Z,3.80
2023-02-02T09:00:35.108Z,4.30
2023-02-02T09:03:03.184Z,3.13
2023-02-02T09:05:31.345Z,3.57
2023-02-02T09:07:59.464Z,2.97
2023-02-02T09:10:27.628Z,4.13
2023-02-02T09:12:55.675Z,4.60
2023-02-02T09:15:24.088Z,3.50
2023-02-02T09:17:54.048Z,3.50
2023-02-02T09:20:22.339Z,3.93
2023-02-02T09:22:59.465Z,4.17
2023-02-02T09:25:27.883Z,3.33
2023-02-02T09:27:55.926Z,3.80
2023-02-02T09:30:23.938Z,3.57
2023-02-02T09:32:53.273Z,3.37
2023-02-02T09:35:21.311Z,3.40
2023-02-02T09:37:49.255Z,3.87
2023-02-02T09:40:19.476Z,4.20
2023-02-02T09:42:56.147Z,3.43
2023-02-02T09:45:27.694Z,3.70
2023-02-02T09:47:59.088Z,3.80
2023-02-02T09:50:35.772Z,3.03
2023-02-02T09:53:07.767Z,2.83
2023-02-02T09:55:37.944Z,3.50
2023-02-02T09:58:09.360Z,3.17
2023-02-02T10:00:39.779Z,3.40
2023-02-02T10:03:16.820Z,2.90
2023-02-02T10:05:48.164Z,3.30
2023-02-02T10:08:33.686Z,3.57
2023-02-02T10:11:05.258Z,3.00
2023-02-02T10:13:35.111Z,2.27
2023-02-02T10:16:07.701Z,3.13
2023-02-02T10:18:43.674Z,2.73
2023-02-02T10:21:13.350Z,2.77
2023-02-02T10:23:42.195Z,2.80
2023-02-02T10:26:14.396Z,2.90
2023-02-02T10:28:50.467Z,2.90
2023-02-02T10:31:20.809Z,3.23
2023-02-02T10:33:55.919Z,2.47
2023-02-02T10:36:28.593Z,2.67
2023-02-02T10:39:02.108Z,2.80
2023-02-02T10:41:36.131Z,1.90
2023-02-02T10:44:14.969Z,2.90
2023-02-02T10:46:45.196Z,2.37
2023-02-02T10:49:18.361Z,2.37
2023-02-02T10:51:50.685Z,2.47
2023-02-02T10:54:26.978Z,2.57
2023-02-02T10:56:57.384Z,2.80
2023-02-02T10:59:28.499Z,2.90
2023-02-02T11:01:56.420Z,2.50
2023-02-02T11:04:51.840Z,3.27
2023-02-02T11:07:20.781Z,2.50
2023-02-02T11:09:48.951Z,2.70
2023-02-02T11:12:20.275Z,2.73
2023-02-02T11:14:50.970Z,2.43
2023-02-02T11:17:21.217Z,2.23
2023-02-02T11:19:51.113Z,2.80
2023-02-02T11:22:27.167Z,2.77
2023-02-02T11:24:55.248Z,3.20
2023-02-02T11:27:24.290Z,3.03
2023-02-02T11:29:53.065Z,3.00
2023-02-02T11:32:26.694Z,2.77
2023-02-02T11:35:15.957Z,3.03
2023-02-02T11:37:58.611Z,2.77
2023-02-02T11:40:34.085Z,2.53
2023-02-02T11:43:02.949Z,2.83
2023-02-02T11:45:33.318Z,2.80
2023-02-02T11:48:07.215Z,2.97
2023-02-02T11:50:36.801Z,3.20
2023-02-02T11:53:04.963Z,2.83
2023-02-02T11:55:33.120Z,2.63
2023-02-02T11:58:19.559Z,2.60
2023-02-02T12:00:48.483Z,3.00
2023-02-02T12:03:24.552Z,3.13
2023-02-02T12:05:54.642Z,3.33
2023-02-02T12:08:22.766Z,3.10
2023-02-02T12:10:54.709Z,3.10
2023-02-02T12:13:29.268Z,2.80
2023-02-02T12:16:03.749Z,2.87
2023-02-02T12:18:38.492Z,2.60
2023-02-02T12:21:09.073Z,4.13
2023-02-02T12:23:44.111Z,2.30
2023-02-02T12:26:23.064Z,3.03
2023-02-02T12:28:58.350Z,2.23
2023-02-02T12:31:31.762Z,3.40
2023-02-02T12:34:04.552Z,2.10
2023-02-02T12:36:39.833Z,2.60
2023-02-02T12:39:19.966Z,2.50
2023-02-02T12:42:02.680Z,2.40
2023-02-02T12:44:34.022Z,2.40
2023-02-02T12:47:08.593Z,2.27
2023-02-02T12:49:52.182Z,1.93
2023-02-02T12:52:27.618Z,2.80
2023-02-02T12:55:25.541Z,2.70
2023-02-02T12:58:02.711Z,2.27
2023-02-02T13:00:57.600Z,2.67
2023-02-02T13:03:31.939Z,3.20
2023-02-02T13:06:23.752Z,3.40
2023-02-02T13:08:55.216Z,2.67
2023-02-02T13:11:31.952Z,2.13
2023-02-02T13:14:01.405Z,3.20
2023-02-02T13:16:31.565Z,3.00
2023-02-02T13:19:03.140Z,2.17
2023-02-02T13:21:31.841Z,2.40
2023-02-02T13:24:04.348Z,2.57
2023-02-02T13:26:37.823Z,2.77
2023-02-02T13:29:07.813Z,1.90
2023-02-02T13:31:38.169Z,2.33
2023-02-02T13:34:07.739Z,2.30
2023-02-02T13:36:39.112Z,2.70
2023-02-02T13:39:17.797Z,2.97
2023-02-02T13:41:50.228Z,2.43
2023-02-02T13:44:22.512Z,2.43
2023-02-02T13:46:57.320Z,2.63
2023-02-02T13:49:29.117Z,2.50
2023-02-02T13:52:06.107Z,2.47
2023-02-02T13:54:59.331Z,1.50
2023-02-02T13:57:32.402Z,1.97
2023-02-02T14:00:03.817Z,1.97
2023-02-02T14:02:34.690Z,2.67
2023-02-02T14:05:04.164Z,1.90
2023-02-02T14:07:37.361Z,1.67
2023-02-02T14:10:08.471Z,2.10
2023-02-02T14:12:37.334Z,1.90
2023-02-02T14:15:07.246Z,1.60
2023-02-02T14:17:53.230Z,1.53
2023-02-02T14:20:45.071Z,1.50
2023-02-02T14:23:31.410Z,1.73
2023-02-02T14:26:07.706Z,2.80
2023-02-02T14:28:48.927Z,1.60
2023-02-02T14:31:31.701Z,1.83
2023-02-02T14:34:18.453Z,1.47
2023-02-02T14:36:53.286Z,1.70
2023-02-02T14:39:23.705Z,1.60
2023-02-02T14:42:33.309Z,2.67
2023-02-02T14:45:16.276Z,1.77
2023-02-02T14:47:49.205Z,1.80
2023-02-02T14:50:18.162Z,1.80
2023-02-02T14:52:46.092Z,1.77
2023-02-02T14:55:20.830Z,2.00
2023-02-02T14:57:56.841Z,1.90
2023-02-02T15:00:26.508Z,2.00
2023-02-02T15:02:54.561Z,1.73
2023-02-02T15:05:41.990Z,2.40
2023-02-02T15:08:16.141Z,2.33
2023-02-02T15:11:24.542Z,1.53
2023-02-02T15:14:07.579Z,1.60
2023-02-02T15:16:39.065Z,2.00
2023-02-02T15:19:09.580Z,2.10
2023-02-02T15:21:39.598Z,2.00
2023-02-02T15:24:08.313Z,1.70
2023-02-02T15:26:38.486Z,4.07
2023-02-02T15:29:10.122Z,2.03
2023-02-02T15:31:41.241Z,1.63
2023-02-02T15:34:14.976Z,1.70
2023-02-02T15:36:43.801Z,1.70
2023-02-02T15:39:12.970Z,2.10
2023-02-02T15:41:43.976Z,2.07
2023-02-02T15:44:23.071Z,2.37
2023-02-02T15:46:50.984Z,2.20
2023-02-02T15:49:34.304Z,1.83
2023-02-02T15:52:05.268Z,2.00
2023-02-02T15:54:33.710Z,1.83
2023-02-02T15:57:02.112Z,2.00
2023-02-02T15:59:32.362Z,2.53
2023-02-02T16:02:05.971Z,2.90
2023-02-02T16:04:35.817Z,4.20
2023-02-02T16:07:03.876Z,1.90
2023-02-02T16:09:34.352Z,1.90
2023-02-02T16:12:03.057Z,2.23
2023-02-02T16:14:34.357Z,1.53
2023-02-02T16:17:11.484Z,2.03
2023-02-02T16:19:40.681Z,1.73
2023-02-02T16:22:11.240Z,2.70
2023-02-02T16:24:41.347Z,2.30
2023-02-02T16:27:13.737Z,2.93
2023-02-02T16:29:43.455Z,1.77
2023-02-02T16:32:26.303Z,1.83
2023-02-02T16:34:54.190Z,1.63
2023-02-02T16:37:23.485Z,2.07
2023-02-02T16:39:51.660Z,1.40
2023-02-02T16:42:29.190Z,1.60
2023-02-02T16:44:59.367Z,2.13
2023-02-02T16:47:35.299Z,1.70
2023-02-02T16:50:17.952Z,1.73
2023-02-02T16:52:50.342Z,1.73
2023-02-02T16:55:18.864Z,1.70
2023-02-02T16:57:47.742Z,2.17
2023-02-02T17:00:21.202Z,1.73
2023-02-02T17:02:50.207Z,1.77
2023-02-02T17:05:20.841Z,1.77
2023-02-02T17:07:50.334Z,2.00
2023-02-02T17:10:23.263Z,1.70
2023-02-02T17:12:51.177Z,1.30
2023-02-02T17:15:34.494Z,2.50
2023-02-02T17:18:03.445Z,1.23
2023-02-02T17:20:32.585Z,1.93
2023-02-02T17:23:02.688Z,2.03
2023-02-02T17:25:31.676Z,1.57
2023-02-02T17:28:00.363Z,2.13
2023-02-02T17:30:29.142Z,2.47
2023-02-02T17:32:58.659Z,2.47
2023-02-02T17:35:32.608Z,2.00
2023-02-02T17:38:05.304Z,2.27
2023-02-02T17:40:34.074Z,2.27
2023-02-02T17:43:02.321Z,1.90
2023-02-02T17:45:33.614Z,2.63
2023-02-02T17:48:03.606Z,2.00
2023-02-02T17:50:32.081Z,2.40
2023-02-02T17:53:00.173Z,2.27
2023-02-02T17:55:29.089Z,1.80
2023-02-02T17:57:56.987Z,1.93
2023-02-02T18:00:26.704Z,2.00
2023-02-02T18:02:57.134Z,1.93
2023-02-02T18:05:26.750Z,2.63
2023-02-02T18:07:54.998Z,2.30
2023-02-02T18:10:24.830Z,1.93
2023-02-02T18:12:53.558Z,2.20
2023-02-02T18:15:21.615Z,2.47
2023-02-02T18:17:49.671Z,2.10
2023-02-02T18:20:18.783Z,2.70
2023-02-02T18:22:48.970Z,2.77
2023-02-02T18:25:17.038Z,1.80
2023-02-02T18:27:45.028Z,2.30
2023-02-02T18:30:13.456Z,2.57
2023-02-02T18:32:42.318Z,2.90
2023-02-02T18:35:10.885Z,2.50
2023-02-02T18:37:38.831Z,2.23
2023-02-02T18:40:08.783Z,2.70
2023-02-02T18:42:37.043Z,3.60
2023-02-02T18:45:05.683Z,3.47
2023-02-02T18:47:33.648Z,2.63
2023-02-02T18:50:01.542Z,2.87
2023-02-02T18:52:32.678Z,3.70
2023-02-02T18:55:00.537Z,3.93
2023-02-02T18:57:30.026Z,3.87
2023-02-02T18:59:57.927Z,3.70
2023-02-02T19:02:26.505Z,4.20
2023-02-02T19:05:11.683Z,3.93
2023-02-02T19:07:59.116Z,3.77
2023-02-02T19:10:27.901Z,3.63
2023-02-02T19:12:59.385Z,3.40
2023-02-02T19:15:27.508Z,3.20
2023-02-02T19:17:56.161Z,3.93
2023-02-02T19:20:28.128Z,3.50
2023-02-02T19:23:05.777Z,3.50
2023-02-02T19:25:33.700Z,3.63
2023-02-02T19:28:04.096Z,3.93
2023-02-02T19:30:32.066Z,3.80
2023-02-02T19:32:59.908Z,4.17
2023-02-02T19:35:28.941Z,3.30
2023-02-02T19:37:59.786Z,3.37
2023-02-02T19:40:27.977Z,2.93
2023-02-02T19:42:57.329Z,3.77
2023-02-02T19:45:27.982Z,3.17
2023-02-02T19:47:57.226Z,4.17
2023-02-02T19:50:26.292Z,3.03
2023-02-02T19:52:55.165Z,3.70
2023-02-02T19:55:24.476Z,3.50
2023-02-02T19:57:52.914Z,3.40
2023-02-02T20:00:22.185Z,3.40
2023-02-02T20:02:57.258Z,3.77
2023-02-02T20:05:26.265Z,4.07
2023-02-02T20:07:57.023Z,3.93
2023-02-02T20:10:26.188Z,3.17
2023-02-02T20:12:54.540Z,4.30
2023-02-02T20:15:37.223Z,3.90
2023-02-02T20:18:07.244Z,3.83
2023-02-02T20:20:38.205Z,4.20
2023-02-02T20:23:07.644Z,4.10
2023-02-02T20:25:37.593Z,3.27
2023-02-02T20:28:09.026Z,4.50
2023-02-02T20:30:36.886Z,3.90
2023-02-02T20:33:18.723Z,3.77
2023-02-02T20:35:46.599Z,3.50
2023-02-02T20:38:17.083Z,3.03
2023-02-02T20:40:44.964Z,3.30
2023-02-02T20:43:14.864Z,3.47
2023-02-02T20:45:43.660Z,3.17
2023-02-02T20:48:14.430Z,3.20
2023-02-02T20:50:42.589Z,3.43
2023-02-02T20:53:10.870Z,3.20
2023-02-02T20:55:38.821Z,3.57
2023-02-02T20:58:06.686Z,3.50
2023-02-02T21:00:34.674Z,3.63
2023-02-02T21:03:02.593Z,4.03
2023-02-02T21:05:31.831Z,4.50
2023-02-02T21:07:59.674Z,4.60
2023-02-02T21:10:27.971Z,4.47
2023-02-02T21:12:56.066Z,4.00
2023-02-02T21:15:25.676Z,3.90
2023-02-02T21:17:53.527Z,3.53
2023-02-02T21:20:21.704Z,4.10
2023-02-02T21:22:50.976Z,3.43
2023-02-02T21:25:18.886Z,3.30
2023-02-02T21:27:46.760Z,3.33
2023-02-02T21:30:15.198Z,3.23
2023-02-02T21:32:43.155Z,2.90
2023-02-02T21:35:13.547Z,3.07
2023-02-02T21:37:44.269Z,3.30
2023-02-02T21:40:18.670Z,3.40
2023-02-02T21:42:48.568Z,2.80
2023-02-02T21:45:28.597Z,2.53
2023-02-02T21:47:57.238Z,2.67
2023-02-02T21:50:27.400Z,2.73
2023-02-02T21:53:07.911Z,2.70
2023-02-02T21:55:38.133Z,2.60
2023-02-02T21:58:13.345Z,2.13
2023-02-02T22:00:41.168Z,2.70
2023-02-02T22:03:20.770Z,2.77
2023-02-02T22:05:48.614Z,3.00
2023-02-02T22:08:20.962Z,2.97
2023-02-02T22:10:50.219Z,2.73
2023-02-02T22:13:19.201Z,2.23
2023-02-02T22:15:48.042Z,3.03
2023-02-02T22:18:17.369Z,3.23
2023-02-02T22:20:47.330Z,3.10
2023-02-02T22:23:16.449Z,2.40
2023-02-02T22:25:45.504Z,2.43
2023-02-02T22:28:18.565Z,2.07
2023-02-02T22:30:46.532Z,2.63
2023-02-02T22:33:14.488Z,2.93
2023-02-02T22:35:42.391Z,2.10
2023-02-02T22:38:10.398Z,2.90
2023-02-02T22:40:38.303Z,2.40
2023-02-02T22:43:07.839Z,2.40
2023-02-02T22:45:37.143Z,2.23
2023-02-02T22:48:05.280Z,2.10
2023-02-02T22:50:35.059Z,2.50
2023-02-02T22:53:03.288Z,2.43
2023-02-02T22:55:31.269Z,2.00
2023-02-02T22:57:59.362Z,2.13
2023-02-02T23:00:28.256Z,1.80
2023-02-02T23:02:58.228Z,1.80
2023-02-02T23:05:26.791Z,1.80
2023-02-02T23:07:55.065Z,2.00
2023-02-02T23:10:24.472Z,1.90
2023-02-02T23:12:54.011Z,1.87
2023-02-02T23:15:22.197Z,2.10
2023-02-02T23:17:50.068Z,1.70
2023-02-02T23:20:19.552Z,2.30
2023-02-02T23:22:47.445Z,2.00
2023-02-02T23:25:16.050Z,1.60
2023-02-02T23:27:44.427Z,2.17
2023-02-02T23:30:14.752Z,1.47
2023-02-02T23:32:42.976Z,1.40
2023-02-02T23:35:11.236Z,1.67
2023-02-02T23:37:40.546Z,1.40
2023-02-02T23:40:08.970Z,1.80
2023-02-02T23:42:37.658Z,1.60
2023-02-02T23:45:05.827Z,1.83
2023-02-02T23:47:33.942Z,1.80
2023-02-02T23:50:04.311Z,2.30
2023-02-02T23:52:32.567Z,1.90
2023-02-02T23:55:02.504Z,2.30
2023-02-02T23:57:30.662Z,1.93
2023-02-02T23:59:58.556Z,1.80
